createdAt,value
2022-09-20T00:01:05.842Z,20.36
2022-09-20T00:03:33.846Z,20.33
2022-09-20T00:06:03.373Z,20.24
2022-09-20T00:11:01.677Z,20.30
2022-09-20T00:13:29.652Z,20.29
2022-09-20T00:15:57.743Z,20.28
2022-09-20T00:18:25.688Z,20.27
2022-09-20T00:20:53.700Z,20.25
2022-09-20T00:23:23.036Z,20.23
2022-09-20T00:25:57.011Z,20.24
2022-09-20T00:28:25.273Z,20.19
2022-09-20T00:30:53.357Z,20.16
2022-09-20T00:33:21.482Z,20.12
2022-09-20T00:35:48.376Z,20.08
2022-09-20T00:38:16.464Z,20.04
2022-09-20T00:40:45.978Z,20.02
2022-09-20T00:43:15.998Z,19.97
2022-09-20T00:45:44.285Z,19.93
2022-09-20T00:48:13.700Z,19.91
2022-09-20T00:50:42.181Z,19.84
2022-09-20T00:53:12.271Z,19.78
2022-09-20T00:55:42.208Z,19.73
2022-09-20T00:58:11.479Z,19.66
2022-09-20T01:00:39.467Z,19.58
2022-09-20T01:03:08.624Z,19.51
2022-09-20T01:05:36.666Z,19.44
2022-09-20T01:08:04.567Z,19.34
2022-09-20T01:10:33.152Z,19.31
2022-09-20T01:13:01.181Z,19.24
2022-09-20T01:15:30.580Z,19.16
2022-09-20T01:17:59.190Z,19.09
2022-09-20T01:20:27.481Z,19.00
2022-09-20T01:23:32.131Z,18.95
2022-09-20T01:26:29.816Z,18.78
2022-09-20T01:29:02.437Z,18.75
2022-09-20T01:31:32.433Z,18.76
2022-09-20T01:34:01.032Z,18.65
2022-09-20T01:36:32.931Z,18.68
2022-09-20T01:39:05.540Z,18.62
2022-09-20T01:41:36.233Z,18.57
2022-09-20T01:44:08.107Z,18.56
2022-09-20T01:46:37.037Z,18.50
2022-09-20T01:49:12.380Z,18.41
2022-09-20T01:52:12.427Z,18.39
2022-09-20T01:55:07.570Z,18.34
2022-09-20T01:58:04.657Z,18.22
2022-09-20T02:00:35.144Z,18.24
2022-09-20T02:03:26.420Z,18.16
2022-09-20T02:06:09.023Z,18.19
2022-09-20T02:09:18.219Z,18.14
2022-09-20T02:11:59.285Z,18.12
2022-09-20T02:14:32.233Z,18.08
2022-09-20T02:17:09.637Z,18.05
2022-09-20T02:19:58.318Z,17.98
2022-09-20T02:22:38.262Z,17.92
2022-09-20T02:25:13.423Z,17.81
2022-09-20T02:27:46.207Z,17.84
2022-09-20T02:30:19.978Z,17.78
2022-09-20T02:32:59.973Z,17.76
2022-09-20T02:35:34.483Z,17.70
2022-09-20T02:38:06.941Z,17.66
2022-09-20T02:41:00.497Z,17.63
2022-09-20T02:43:31.780Z,17.58
2022-09-20T02:46:02.522Z,17.48
2022-09-20T02:48:35.774Z,17.53
2022-09-20T02:51:06.911Z,17.50
2022-09-20T02:53:38.269Z,17.47
2022-09-20T02:56:10.128Z,17.47
2022-09-20T02:58:42.314Z,17.44
2022-09-20T03:01:23.537Z,17.38
2022-09-20T03:03:57.804Z,17.35
2022-09-20T03:06:28.775Z,17.39
2022-09-20T03:08:59.918Z,17.30
2022-09-20T03:11:30.883Z,17.33
2022-09-20T03:14:11.879Z,17.29
2022-09-20T03:16:51.890Z,17.28
2022-09-20T03:19:35.103Z,17.23
2022-09-20T03:22:06.923Z,17.19
2022-09-20T03:24:41.053Z,17.15
2022-09-20T03:27:12.836Z,17.11
2022-09-20T03:29:48.400Z,17.03
2022-09-20T03:32:25.775Z,17.02
2022-09-20T03:35:01.922Z,16.98
2022-09-20T03:37:41.831Z,16.94
2022-09-20T03:40:20.488Z,16.90
2022-09-20T03:42:49.967Z,16.83
2022-09-20T03:45:47.519Z,16.81
2022-09-20T03:48:45.916Z,16.77
2022-09-20T03:51:19.951Z,16.73
2022-09-20T03:54:02.424Z,16.62
2022-09-20T03:56:39.350Z,16.74
2022-09-20T03:59:18.748Z,16.65
2022-09-20T04:02:20.745Z,16.60
2022-09-20T04:04:51.110Z,16.62
2022-09-20T04:07:23.644Z,16.60
2022-09-20T04:10:25.597Z,16.56
2022-09-20T04:13:03.317Z,16.44
2022-09-20T04:15:36.671Z,16.47
2022-09-20T04:18:08.044Z,16.43
2022-09-20T04:20:39.748Z,16.42
2022-09-20T04:23:30.960Z,16.40
2022-09-20T04:25:58.858Z,16.39
2022-09-20T04:28:28.152Z,16.39
2022-09-20T04:30:57.794Z,16.37
2022-09-20T04:33:27.528Z,16.35
2022-09-20T04:36:17.575Z,16.32
2022-09-20T04:38:47.164Z,16.29
2022-09-20T04:41:35.119Z,16.26
2022-09-20T04:44:28.825Z,16.22
2022-09-20T04:47:25.801Z,16.20
2022-09-20T04:50:18.493Z,16.20
2022-09-20T04:53:08.261Z,16.14
2022-09-20T04:55:55.598Z,16.18
2022-09-20T04:58:50.909Z,16.16
2022-09-20T05:02:03.517Z,16.15
2022-09-20T05:05:16.113Z,16.13
2022-09-20T05:08:07.017Z,16.10
2022-09-20T05:11:11.692Z,16.12
2022-09-20T05:13:47.705Z,16.08
2022-09-20T05:16:19.963Z,16.02
2022-09-20T05:19:20.938Z,16.04
2022-09-20T05:22:10.514Z,16.02
2022-09-20T05:24:48.561Z,16.01
2022-09-20T05:27:35.371Z,16.01
2022-09-20T05:30:08.817Z,16.00
2022-09-20T05:32:40.649Z,15.99
2022-09-20T05:35:13.849Z,16.01
2022-09-20T05:37:44.773Z,15.98
2022-09-20T05:40:19.633Z,15.99
2022-09-20T05:42:50.083Z,16.00
2022-09-20T05:45:24.173Z,15.99
2022-09-20T05:47:54.265Z,15.98
2022-09-20T05:50:34.674Z,15.98
2022-09-20T05:53:20.441Z,15.99
2022-09-20T05:55:53.209Z,15.96
2022-09-20T05:58:36.928Z,16.02
2022-09-20T06:01:09.173Z,16.05
2022-09-20T06:03:38.580Z,16.09
2022-09-20T06:06:10.374Z,16.11
2022-09-20T06:08:58.296Z,16.12
2022-09-20T06:11:53.363Z,16.17
2022-09-20T06:14:28.685Z,16.19
2022-09-20T06:17:03.850Z,16.24
2022-09-20T06:19:36.275Z,16.28
2022-09-20T06:22:09.436Z,16.28
2022-09-20T06:24:39.434Z,16.21
2022-09-20T06:27:10.039Z,16.39
2022-09-20T06:29:40.121Z,16.44
2022-09-20T06:32:09.380Z,16.51
2022-09-20T06:34:37.303Z,16.57
2022-09-20T06:37:31.115Z,16.65
2022-09-20T06:40:18.746Z,16.64
2022-09-20T06:42:48.044Z,16.78
2022-09-20T06:45:15.980Z,16.84
2022-09-20T06:47:45.368Z,16.90
2022-09-20T06:50:16.929Z,16.97
2022-09-20T06:52:45.200Z,17.01
2022-09-20T06:55:13.834Z,17.07
2022-09-20T06:57:41.685Z,17.13
2022-09-20T07:00:12.515Z,17.16
2022-09-20T07:02:40.389Z,17.21
2022-09-20T07:05:14.645Z,17.24
2022-09-20T07:07:43.985Z,17.29
2022-09-20T07:10:12.280Z,17.37
2022-09-20T07:12:40.355Z,17.44
2022-09-20T07:15:09.234Z,17.50
2022-09-20T07:17:37.137Z,17.55
2022-09-20T07:20:05.604Z,17.58
2022-09-20T07:22:34.922Z,17.65
2022-09-20T07:25:03.563Z,17.72
2022-09-20T07:27:31.452Z,17.78
2022-09-20T07:29:59.652Z,17.83
2022-09-20T07:32:27.861Z,17.91
2022-09-20T07:34:55.817Z,18.00
2022-09-20T07:37:23.812Z,18.07
2022-09-20T07:39:53.314Z,18.12
2022-09-20T07:42:21.211Z,18.23
2022-09-20T07:44:50.808Z,18.32
2022-09-20T07:47:18.803Z,18.47
2022-09-20T07:49:46.695Z,18.58
2022-09-20T07:52:14.798Z,18.76
2022-09-20T07:54:42.757Z,18.90
2022-09-20T07:57:12.109Z,19.04
2022-09-20T07:59:39.989Z,19.16
2022-09-20T08:02:07.909Z,19.32
2022-09-20T08:04:35.948Z,19.44
2022-09-20T08:07:03.940Z,19.59
2022-09-20T08:09:31.929Z,19.72
2022-09-20T08:14:04.898Z,19.81
2022-09-20T08:14:49.148Z,19.89
2022-09-20T08:17:17.429Z,19.94
2022-09-20T08:19:45.687Z,19.94
2022-09-20T08:22:14.053Z,19.94
2022-09-20T08:24:42.509Z,19.93
2022-09-20T08:27:10.407Z,19.92
2022-09-20T08:29:38.354Z,19.84
2022-09-20T08:32:07.718Z,19.86
2022-09-20T08:34:35.635Z,19.90
2022-09-20T08:37:03.647Z,19.91
2022-09-20T08:42:23.230Z,20.00
2022-09-20T08:45:00.564Z,20.15
2022-09-20T08:47:31.185Z,20.29
2022-09-20T08:49:59.452Z,20.40
2022-09-20T08:52:36.240Z,20.54
2022-09-20T08:55:07.657Z,20.70
2022-09-20T08:57:36.539Z,20.87
2022-09-20T09:00:05.686Z,21.01
2022-09-20T09:02:35.493Z,21.12
2022-09-20T09:05:32.629Z,21.22
2022-09-20T09:08:01.178Z,21.25
2022-09-20T09:10:30.672Z,21.33
2022-09-20T09:12:58.780Z,21.36
2022-09-20T09:15:29.328Z,21.20
2022-09-20T09:17:58.635Z,21.38
2022-09-20T09:20:26.741Z,21.38
2022-09-20T09:23:02.698Z,21.38
2022-09-20T09:25:32.335Z,21.32
2022-09-20T09:28:01.339Z,21.39
2022-09-20T09:30:30.304Z,21.40
2022-09-20T09:33:21.248Z,21.42
2022-09-20T09:35:54.585Z,21.27
2022-09-20T09:38:24.286Z,21.47
2022-09-20T09:40:53.600Z,21.54
2022-09-20T09:43:23.433Z,21.66
2022-09-20T09:45:51.437Z,21.74
2022-09-20T09:48:21.921Z,21.79
2022-09-20T09:50:49.909Z,21.90
2022-09-20T09:53:20.794Z,22.01
2022-09-20T09:56:12.043Z,22.14
2022-09-20T09:58:48.600Z,22.23
2022-09-20T10:01:22.671Z,22.38
2022-09-20T10:03:55.047Z,22.47
2022-09-20T10:06:25.261Z,22.57
2022-09-20T10:09:16.669Z,22.58
2022-09-20T10:11:56.992Z,22.77
2022-09-20T10:17:07.177Z,22.93
2022-09-20T10:19:44.635Z,23.01
2022-09-20T10:22:17.808Z,23.07
2022-09-20T10:24:51.353Z,23.13
2022-09-20T10:27:35.198Z,23.16
2022-09-20T10:30:05.157Z,23.09
2022-09-20T10:32:46.705Z,23.19
2022-09-20T10:35:25.923Z,23.25
2022-09-20T10:38:07.422Z,23.31
2022-09-20T10:40:50.188Z,23.37
2022-09-20T10:43:25.497Z,23.48
2022-09-20T10:48:48.624Z,23.77
2022-09-20T10:51:22.546Z,23.92
2022-09-20T10:53:54.043Z,24.09
2022-09-20T10:56:26.633Z,24.37
2022-09-20T10:59:17.364Z,24.62
2022-09-20T11:01:52.011Z,24.20
2022-09-20T11:04:34.798Z,24.30
2022-09-20T11:07:09.879Z,24.72
2022-09-20T11:09:39.570Z,25.26
2022-09-20T11:12:11.990Z,25.81
2022-09-20T11:14:41.588Z,25.92
2022-09-20T11:17:13.444Z,25.95
2022-09-20T11:19:48.879Z,25.96
2022-09-20T11:22:19.955Z,26.25
2022-09-20T11:24:49.016Z,26.52
2022-09-20T11:27:19.634Z,26.77
2022-09-20T11:29:50.122Z,27.13
2022-09-20T11:32:23.690Z,27.16
2022-09-20T11:34:53.633Z,27.23
2022-09-20T11:37:23.025Z,27.09
2022-09-20T11:39:52.480Z,26.80
2022-09-20T11:42:25.293Z,26.78
2022-09-20T11:44:53.309Z,26.57
2022-09-20T11:47:50.053Z,26.25
2022-09-20T11:50:38.436Z,25.81
2022-09-20T11:53:12.392Z,25.56
2022-09-20T11:55:45.737Z,25.35
2022-09-20T11:58:15.921Z,25.19
2022-09-20T12:00:45.789Z,24.94
2022-09-20T12:03:24.312Z,24.85
2022-09-20T12:05:57.919Z,24.70
2022-09-20T12:08:29.481Z,24.57
2022-09-20T12:10:59.780Z,24.41
2022-09-20T12:13:27.807Z,24.37
2022-09-20T12:16:00.843Z,24.29
2022-09-20T12:18:47.220Z,24.13
2022-09-20T12:21:17.324Z,24.11
2022-09-20T12:24:19.338Z,23.86
2022-09-20T12:26:56.284Z,24.60
2022-09-20T12:30:15.043Z,25.78
2022-09-20T12:33:07.339Z,26.88
2022-09-20T12:36:14.493Z,27.92
2022-09-20T12:39:04.166Z,28.80
2022-09-20T12:41:47.747Z,29.38
2022-09-20T12:44:27.672Z,29.82
2022-09-20T12:46:57.198Z,30.12
2022-09-20T12:49:57.622Z,30.12
2022-09-20T12:52:47.484Z,30.12
2022-09-20T12:55:57.096Z,29.92
2022-09-20T12:58:33.107Z,29.77
2022-09-20T13:01:29.039Z,29.99
2022-09-20T13:04:33.454Z,29.93
2022-09-20T13:07:47.145Z,29.50
2022-09-20T13:10:35.165Z,29.49
2022-09-20T13:13:59.543Z,29.85
2022-09-20T13:16:46.395Z,29.41
2022-09-20T13:19:26.825Z,30.19
2022-09-20T13:21:56.929Z,30.42
2022-09-20T13:24:37.667Z,31.08
2022-09-20T13:27:10.583Z,31.57
2022-09-20T13:29:45.739Z,31.83
2022-09-20T13:32:23.123Z,32.13
2022-09-20T13:35:07.686Z,32.31
2022-09-20T13:37:38.934Z,32.50
2022-09-20T13:40:26.625Z,32.67
2022-09-20T13:43:22.265Z,32.83
2022-09-20T13:45:52.536Z,33.00
2022-09-20T13:48:37.118Z,32.22
2022-09-20T13:51:28.600Z,33.03
2022-09-20T13:54:33.090Z,33.18
2022-09-20T13:57:04.941Z,33.96
2022-09-20T13:59:42.406Z,33.15
2022-09-20T14:03:35.906Z,34.09
2022-09-20T14:06:06.691Z,33.89
2022-09-20T14:08:37.223Z,33.57
2022-09-20T14:11:07.187Z,33.30
2022-09-20T14:13:38.064Z,33.33
2022-09-20T14:16:06.450Z,33.04
2022-09-20T14:18:34.436Z,33.04
2022-09-20T14:21:02.516Z,33.20
2022-09-20T14:23:31.883Z,33.30
2022-09-20T14:26:10.320Z,33.36
2022-09-20T14:28:38.211Z,33.20
2022-09-20T14:31:08.012Z,33.15
2022-09-20T14:33:36.570Z,32.96
2022-09-20T14:36:04.549Z,33.22
2022-09-20T14:38:34.229Z,33.27
2022-09-20T14:41:02.228Z,33.41
2022-09-20T14:43:31.456Z,33.47
2022-09-20T14:46:00.712Z,33.50
2022-09-20T14:48:36.741Z,33.54
2022-09-20T14:51:25.510Z,33.82
2022-09-20T14:53:55.399Z,34.05
2022-09-20T14:56:34.215Z,34.20
2022-09-20T14:59:06.914Z,34.19
2022-09-20T15:01:35.359Z,34.21
2022-09-20T15:04:08.175Z,34.24
2022-09-20T15:06:37.773Z,34.36
2022-09-20T15:09:13.380Z,34.36
2022-09-20T15:11:41.942Z,34.40
2022-09-20T15:14:09.855Z,34.49
2022-09-20T15:17:01.622Z,34.29
2022-09-20T15:19:30.529Z,34.17
2022-09-20T15:21:58.542Z,34.24
2022-09-20T15:24:28.331Z,34.34
2022-09-20T15:26:56.258Z,34.35
2022-09-20T15:29:24.173Z,34.28
2022-09-20T15:31:52.284Z,34.19
2022-09-20T15:34:20.283Z,34.05
2022-09-20T15:36:48.773Z,34.05
2022-09-20T15:39:16.999Z,33.96
2022-09-20T15:41:46.981Z,33.87
2022-09-20T15:44:16.616Z,33.43
2022-09-20T15:46:44.492Z,32.99
2022-09-20T15:49:12.897Z,32.38
2022-09-20T15:51:41.322Z,31.44
2022-09-20T15:54:11.558Z,30.79
2022-09-20T15:56:40.319Z,29.99
2022-09-20T15:59:10.779Z,29.30
2022-09-20T16:01:39.837Z,28.86
2022-09-20T16:04:08.434Z,28.36
2022-09-20T16:06:36.519Z,27.92
2022-09-20T16:09:04.847Z,27.66
2022-09-20T16:11:32.929Z,27.55
2022-09-20T16:14:01.376Z,27.66
2022-09-20T16:16:34.952Z,27.89
2022-09-20T16:19:23.862Z,27.72
2022-09-20T16:21:57.699Z,27.35
2022-09-20T16:24:26.999Z,26.99
2022-09-20T16:26:54.987Z,26.63
2022-09-20T16:29:23.570Z,26.38
2022-09-20T16:31:52.890Z,26.11
2022-09-20T16:34:21.966Z,25.82
2022-09-20T16:36:50.961Z,25.60
2022-09-20T16:39:19.592Z,25.45
2022-09-20T16:41:48.232Z,25.08
2022-09-20T16:44:16.811Z,25.05
2022-09-20T16:46:45.657Z,24.93
2022-09-20T16:49:15.440Z,24.74
2022-09-20T17:01:42.604Z,24.11
2022-09-20T17:01:54.672Z,24.61
2022-09-20T17:05:07.634Z,23.90
2022-09-20T17:08:10.218Z,23.84
2022-09-20T17:14:40.777Z,23.63
2022-09-20T17:51:12.234Z,22.34
2022-09-20T19:08:57.020Z,20.10
2022-09-20T19:12:16.826Z,20.29
2022-09-20T19:15:29.438Z,20.21
2022-09-20T19:18:26.387Z,20.12
2022-09-20T19:28:43.591Z,19.90
2022-09-20T19:35:55.042Z,19.73
2022-09-20T20:43:24.881Z,18.96
2022-09-20T22:54:19.092Z,18.24
